Millseat, Kentucky
Current Conditions -  °F | °C
As of 3:55 AM on Friday 31 Oct 2014 (Local Time) from KDWU Reporting Station
Overcast Overcast  
Wind Chill: 37°   Ceiling: 300
Heat Index: 37°   Visibility: 6mi
Dew Point: 34°   Wind: 0mph
Humidity: 87%   Direction: NA
Pressure: 30.01"   Gusts: NA
Location:  38.4744°N, 82.6532°W
Report Text: KDWU 310755Z AUTO 00000KT 6SM OVC003 03/01 A3001 RMK AO1
Loading
Personal Weather Stations






























Interactive Weather Map
Tropical Storm Tracking
New forecast layout! Learn more

10-Day Weather Forecast

Advertisements
Track Severe Weather on mobile